createdAt,value
2019-04-21T00:01:00.414Z,11.50
2019-04-21T00:03:35.617Z,11.40
2019-04-21T00:06:23.693Z,11.40
2019-04-21T00:09:00.930Z,11.20
2019-04-21T00:11:24.894Z,11.10
2019-04-21T00:13:49.619Z,11.00
2019-04-21T00:16:12.247Z,11.00
2019-04-21T00:19:02.530Z,10.90
2019-04-21T00:21:34.518Z,11.00
2019-04-21T00:24:32.032Z,10.90
2019-04-21T00:27:03.781Z,10.90
2019-04-21T00:29:38.403Z,10.80
2019-04-21T00:32:03.007Z,10.70
2019-04-21T00:34:21.618Z,10.70
2019-04-21T00:37:03.200Z,10.80
2019-04-21T00:42:13.904Z,10.70
2019-04-21T00:44:40.122Z,10.80
2019-04-21T00:47:25.105Z,10.80
2019-04-21T00:49:56.508Z,10.80
2019-04-21T00:52:51.019Z,10.70
2019-04-21T00:55:34.063Z,10.60
2019-04-21T00:58:05.155Z,10.60
2019-04-21T01:00:32.663Z,10.60
2019-04-21T01:03:12.636Z,10.50
2019-04-21T01:05:45.178Z,10.40
2019-04-21T01:08:10.010Z,10.30
2019-04-21T01:10:34.682Z,10.30
2019-04-21T01:13:18.897Z,10.30
2019-04-21T01:15:49.096Z,10.20
2019-04-21T01:18:21.153Z,10.20
2019-04-21T01:20:30.171Z,10.20
2019-04-21T01:23:00.400Z,10.10
2019-04-21T01:25:38.162Z,9.90
2019-04-21T01:28:19.883Z,9.90
2019-04-21T01:30:56.899Z,9.90
2019-04-21T01:33:36.285Z,9.80
2019-04-21T01:35:58.327Z,9.80
2019-04-21T01:38:35.708Z,9.70
2019-04-21T01:41:08.373Z,9.60
2019-04-21T01:43:33.383Z,9.50
2019-04-21T01:46:08.092Z,9.50
2019-04-21T01:48:34.257Z,9.50
2019-04-21T01:51:05.407Z,9.40
2019-04-21T01:54:09.465Z,9.40
2019-04-21T01:56:53.940Z,9.30
2019-04-21T01:59:23.455Z,9.30
2019-04-21T02:02:01.727Z,9.20
2019-04-21T02:04:37.211Z,9.20
2019-04-21T02:07:11.278Z,9.10
2019-04-21T02:09:37.343Z,9.10
2019-04-21T02:12:13.387Z,9.00
2019-04-21T02:14:54.465Z,9.00
2019-04-21T02:17:16.399Z,9.00
2019-04-21T02:19:43.443Z,8.90
2019-04-21T02:22:26.467Z,8.90
2019-04-21T02:24:58.105Z,8.80
2019-04-21T02:27:23.741Z,8.90
2019-04-21T02:30:00.060Z,8.80
2019-04-21T02:35:30.623Z,8.80
2019-04-21T02:37:44.867Z,8.80
2019-04-21T02:40:11.225Z,8.80
2019-04-21T02:52:53.334Z,8.80
2019-04-21T02:55:32.769Z,8.70
2019-04-21T03:00:34.542Z,8.70
2019-04-21T03:03:52.744Z,8.70
2019-04-21T03:06:29.122Z,8.60
2019-04-21T03:08:59.091Z,8.60
2019-04-21T03:11:28.937Z,8.70
2019-04-21T03:14:05.880Z,8.70
2019-04-21T03:16:26.494Z,8.70
2019-04-21T03:21:40.457Z,8.80
2019-04-21T03:24:05.310Z,8.80
2019-04-21T03:29:15.591Z,8.70
2019-04-21T03:39:17.990Z,8.50
2019-04-21T03:42:04.021Z,8.50
2019-04-21T03:44:22.986Z,8.60
2019-04-21T03:49:49.671Z,8.50
2019-04-21T03:52:03.267Z,8.40
2019-04-21T03:54:37.280Z,8.40
2019-04-21T03:59:36.834Z,8.40
2019-04-21T04:02:35.035Z,8.40
2019-04-21T04:05:15.124Z,8.50
2019-04-21T04:10:31.459Z,8.60
2019-04-21T04:12:54.678Z,8.70
2019-04-21T04:15:34.800Z,8.70
2019-04-21T04:17:54.571Z,8.70
2019-04-21T04:20:28.664Z,8.60
2019-04-21T04:23:02.944Z,8.60
2019-04-21T04:25:25.275Z,8.60
2019-04-21T04:28:10.236Z,8.60
2019-04-21T04:30:37.935Z,8.70
2019-04-21T04:33:12.354Z,8.80
2019-04-21T04:35:52.875Z,9.00
2019-04-21T04:38:22.337Z,8.80
2019-04-21T04:41:04.347Z,8.70
2019-04-21T04:43:50.560Z,8.70
2019-04-21T04:45:54.088Z,8.80
2019-04-21T04:48:35.401Z,8.80
2019-04-21T04:51:03.231Z,8.90
2019-04-21T04:53:44.288Z,9.00
2019-04-21T04:56:10.729Z,8.70
2019-04-21T04:59:15.939Z,8.70
2019-04-21T05:01:53.370Z,8.60
2019-04-21T05:03:52.819Z,8.70
2019-04-21T05:11:40.234Z,8.80
2019-04-21T05:16:41.779Z,8.70
2019-04-21T05:23:55.923Z,8.90
2019-04-21T05:26:28.528Z,9.00
2019-04-21T05:28:55.189Z,9.10
2019-04-21T05:32:07.907Z,9.20
2019-04-21T05:34:27.329Z,9.60
2019-04-21T05:37:14.118Z,9.30
2019-04-21T05:39:52.561Z,9.20
2019-04-21T05:42:23.865Z,9.20
2019-04-21T05:45:18.763Z,9.10
2019-04-21T05:48:04.762Z,9.10
2019-04-21T05:50:25.061Z,9.10
2019-04-21T05:52:53.579Z,9.30
2019-04-21T05:55:36.093Z,9.30
2019-04-21T05:58:02.557Z,9.50
2019-04-21T06:01:03.395Z,9.60
2019-04-21T06:05:51.124Z,9.50
2019-04-21T06:08:23.175Z,9.60
2019-04-21T06:13:26.580Z,9.80
2019-04-21T06:15:58.159Z,10.00
2019-04-21T06:18:38.356Z,9.80
2019-04-21T06:20:59.769Z,10.00
2019-04-21T06:23:32.816Z,9.90
2019-04-21T06:26:19.781Z,10.10
2019-04-21T06:28:41.331Z,10.20
2019-04-21T06:31:17.955Z,10.20
2019-04-21T06:33:44.947Z,10.20
2019-04-21T06:36:47.021Z,10.30
2019-04-21T06:41:34.363Z,10.80
2019-04-21T06:44:11.935Z,10.70
2019-04-21T06:46:48.889Z,10.70
2019-04-21T06:49:16.210Z,10.60
2019-04-21T06:51:43.265Z,10.80
2019-04-21T06:54:16.051Z,11.10
2019-04-21T06:56:51.279Z,11.00
2019-04-21T06:59:13.529Z,11.10
2019-04-21T07:01:59.824Z,11.40
2019-04-21T07:04:25.329Z,11.70
2019-04-21T07:07:14.071Z,11.60
2019-04-21T07:09:31.919Z,11.70
2019-04-21T07:11:59.784Z,11.90
2019-04-21T07:14:31.964Z,11.90
2019-04-21T07:17:11.603Z,12.10
2019-04-21T07:19:46.737Z,11.90
2019-04-21T07:22:11.321Z,12.10
2019-04-21T07:24:45.282Z,12.30
2019-04-21T07:27:15.543Z,12.30
2019-04-21T07:29:47.464Z,12.30
2019-04-21T07:32:15.329Z,12.50
2019-04-21T07:34:54.324Z,12.20
2019-04-21T07:37:23.816Z,12.10
2019-04-21T07:39:54.920Z,12.40
2019-04-21T07:42:23.863Z,12.60
2019-04-21T07:44:52.205Z,12.60
2019-04-21T07:47:44.557Z,12.40
2019-04-21T07:50:14.592Z,12.40
2019-04-21T07:53:01.508Z,12.50
2019-04-21T07:58:02.947Z,12.60
2019-04-21T08:03:07.939Z,12.80
2019-04-21T08:05:59.044Z,12.60
2019-04-21T08:08:01.554Z,12.60
2019-04-21T08:10:49.547Z,12.60
2019-04-21T08:13:27.343Z,12.80
2019-04-21T08:16:04.659Z,13.10
2019-04-21T08:18:25.499Z,13.40
2019-04-21T08:20:47.838Z,14.00
2019-04-21T08:23:25.621Z,13.50
2019-04-21T08:26:06.085Z,13.30
2019-04-21T08:28:33.810Z,13.10
2019-04-21T08:31:06.787Z,13.00
2019-04-21T08:33:38.768Z,13.10
2019-04-21T08:36:19.381Z,13.10
2019-04-21T08:38:35.654Z,12.90
2019-04-21T08:41:10.579Z,13.10
2019-04-21T08:46:16.952Z,13.20
2019-04-21T08:48:45.954Z,13.40
2019-04-21T08:51:27.961Z,13.60
2019-04-21T08:53:57.538Z,13.30
2019-04-21T08:56:54.667Z,13.40
2019-04-21T08:59:47.155Z,13.40
2019-04-21T09:02:29.767Z,13.50
2019-04-21T09:04:58.044Z,13.80
2019-04-21T09:10:02.987Z,14.10
2019-04-21T09:12:34.781Z,14.10
2019-04-21T09:15:08.851Z,14.20
2019-04-21T09:17:35.543Z,14.60
2019-04-21T09:20:17.908Z,14.60
2019-04-21T09:22:47.764Z,15.00
2019-04-21T09:25:19.994Z,14.90
2019-04-21T09:27:53.725Z,15.00
2019-04-21T09:30:05.105Z,14.80
2019-04-21T09:32:37.069Z,14.70
2019-04-21T09:35:11.197Z,15.20
2019-04-21T09:37:49.403Z,15.30
2019-04-21T09:40:15.208Z,15.30
2019-04-21T09:42:55.424Z,15.50
2019-04-21T09:45:17.695Z,15.50
2019-04-21T09:47:57.178Z,15.70
2019-04-21T09:50:20.476Z,15.80
2019-04-21T09:52:57.706Z,15.90
2019-04-21T09:55:26.585Z,15.90
2019-04-21T09:58:06.959Z,15.90
2019-04-21T10:00:29.260Z,15.90
2019-04-21T10:03:06.062Z,15.80
2019-04-21T10:05:33.737Z,16.10
2019-04-21T10:08:05.854Z,16.20
2019-04-21T10:10:36.648Z,16.40
2019-04-21T10:13:07.435Z,16.40
2019-04-21T10:15:38.006Z,15.90
2019-04-21T10:18:13.298Z,15.80
2019-04-21T10:20:44.772Z,15.40
2019-04-21T10:23:15.663Z,15.50
2019-04-21T10:25:46.412Z,15.70
2019-04-21T10:28:17.170Z,15.60
2019-04-21T10:30:48.890Z,15.70
2019-04-21T10:33:19.459Z,16.00
2019-04-21T10:35:50.882Z,16.00
2019-04-21T10:38:32.736Z,16.00
2019-04-21T10:40:53.997Z,16.20
2019-04-21T10:43:25.634Z,16.50
2019-04-21T10:45:57.057Z,16.80
2019-04-21T10:48:28.482Z,17.00
2019-04-21T10:51:01.008Z,17.40
2019-04-21T10:53:34.561Z,17.80
2019-04-21T10:56:14.519Z,17.80
2019-04-21T10:58:42.693Z,17.30
2019-04-21T11:01:23.201Z,17.10
2019-04-21T11:04:02.844Z,16.50
2019-04-21T11:06:33.049Z,16.60
2019-04-21T11:09:05.469Z,16.60
2019-04-21T11:11:37.682Z,16.50
2019-04-21T11:14:08.651Z,16.60
2019-04-21T11:16:41.645Z,16.40
2019-04-21T11:19:13.651Z,16.20
2019-04-21T11:21:44.955Z,16.10
2019-04-21T11:24:16.227Z,16.20
2019-04-21T11:26:47.795Z,16.10
2019-04-21T11:29:19.118Z,16.30
2019-04-21T11:31:49.711Z,16.10
2019-04-21T11:34:21.115Z,16.00
2019-04-21T11:36:52.681Z,15.80
2019-04-21T11:39:41.099Z,16.10
2019-04-21T11:42:08.090Z,16.10
2019-04-21T11:44:39.487Z,15.90
2019-04-21T11:47:16.341Z,15.90
2019-04-21T11:49:47.215Z,16.10
2019-04-21T11:52:18.860Z,16.50
2019-04-21T11:54:49.223Z,16.90
2019-04-21T11:57:24.824Z,17.50
2019-04-21T11:59:51.845Z,17.40
2019-04-21T12:02:23.560Z,17.10
2019-04-21T12:04:53.905Z,17.30
2019-04-21T12:07:25.140Z,17.40
2019-04-21T12:09:57.527Z,17.90
2019-04-21T12:12:27.911Z,18.00
2019-04-21T12:14:59.830Z,17.40
2019-04-21T12:17:31.989Z,17.30
2019-04-21T12:20:03.310Z,17.20
2019-04-21T12:22:34.461Z,16.80
2019-04-21T12:25:09.295Z,17.00
2019-04-21T12:27:41.673Z,16.80
2019-04-21T12:30:13.903Z,16.70
2019-04-21T12:33:07.678Z,16.70
2019-04-21T12:35:39.723Z,17.30
2019-04-21T12:38:11.403Z,17.60
2019-04-21T12:40:42.305Z,17.80
2019-04-21T12:43:12.790Z,17.80
2019-04-21T12:45:44.100Z,17.60
2019-04-21T12:48:17.931Z,17.40
2019-04-21T12:50:49.854Z,17.30
2019-04-21T12:53:21.448Z,17.40
2019-04-21T12:55:53.697Z,17.40
2019-04-21T12:58:24.041Z,17.20
2019-04-21T13:00:55.206Z,17.10
2019-04-21T13:03:26.815Z,17.40
2019-04-21T13:05:58.000Z,18.20
2019-04-21T13:08:29.266Z,18.00
2019-04-21T13:11:02.192Z,17.90
2019-04-21T13:13:35.934Z,17.80
2019-04-21T13:16:07.336Z,18.40
2019-04-21T13:18:39.462Z,18.10
2019-04-21T13:21:09.982Z,18.50
2019-04-21T13:23:41.116Z,17.90
2019-04-21T13:26:12.955Z,17.70
2019-04-21T13:28:44.583Z,17.60
2019-04-21T13:31:16.153Z,17.70
2019-04-21T13:33:46.506Z,17.50
2019-04-21T13:36:18.163Z,17.40
2019-04-21T13:39:49.101Z,16.90
2019-04-21T13:42:00.536Z,17.00
2019-04-21T13:44:23.295Z,17.10
2019-04-21T13:46:54.567Z,17.40
2019-04-21T13:49:25.358Z,17.80
2019-04-21T13:51:56.198Z,18.40
2019-04-21T13:54:27.624Z,18.40
2019-04-21T13:56:58.623Z,18.20
2019-04-21T13:59:29.022Z,18.10
2019-04-21T14:02:00.485Z,17.60
2019-04-21T14:04:31.492Z,17.80
2019-04-21T14:07:02.497Z,18.00
2019-04-21T14:09:40.437Z,18.10
2019-04-21T14:12:05.802Z,18.40
2019-04-21T14:14:36.615Z,18.30
2019-04-21T14:17:08.919Z,18.50
2019-04-21T14:19:39.471Z,18.30
2019-04-21T14:22:11.698Z,18.50
2019-04-21T14:24:41.986Z,18.30
2019-04-21T14:27:12.245Z,18.20
2019-04-21T14:29:43.837Z,18.00
2019-04-21T14:32:14.294Z,17.70
2019-04-21T14:34:47.191Z,17.50
2019-04-21T14:37:17.040Z,17.40
2019-04-21T14:39:57.193Z,17.30
2019-04-21T14:42:20.246Z,17.20
2019-04-21T14:44:51.201Z,17.20
2019-04-21T14:47:46.498Z,16.60
2019-04-21T14:50:34.607Z,16.30
2019-04-21T14:53:25.539Z,16.20
2019-04-21T14:55:57.390Z,16.40
2019-04-21T14:58:28.048Z,15.80
2019-04-21T15:01:03.999Z,15.60
2019-04-21T15:03:34.722Z,15.40
2019-04-21T15:06:05.589Z,15.40
2019-04-21T15:08:37.407Z,15.40
2019-04-21T15:11:08.651Z,15.40
2019-04-21T15:13:39.711Z,15.50
2019-04-21T15:16:12.992Z,15.60
2019-04-21T15:18:44.525Z,15.60
2019-04-21T15:21:15.366Z,15.60
2019-04-21T15:23:46.614Z,15.70
2019-04-21T15:26:18.121Z,15.80
2019-04-21T15:28:48.946Z,15.90
2019-04-21T15:31:28.676Z,16.00
2019-04-21T15:33:52.893Z,16.10
2019-04-21T15:36:23.329Z,16.30
2019-04-21T15:38:54.073Z,16.20
2019-04-21T15:41:24.699Z,16.20
2019-04-21T15:43:56.378Z,16.20
2019-04-21T15:46:29.141Z,16.20
2019-04-21T15:49:00.623Z,16.20
2019-04-21T15:51:31.649Z,16.20
2019-04-21T15:54:03.113Z,16.10
2019-04-21T15:56:53.292Z,16.00
2019-04-21T15:59:30.853Z,15.90
2019-04-21T16:02:20.149Z,15.70
2019-04-21T16:04:50.603Z,16.00
2019-04-21T16:07:22.240Z,15.50
2019-04-21T16:09:52.545Z,15.20
2019-04-21T16:12:22.769Z,14.80
2019-04-21T16:14:54.356Z,14.80
2019-04-21T16:17:25.403Z,14.80
2019-04-21T16:19:56.222Z,14.80
2019-04-21T16:22:26.753Z,14.40
2019-04-21T16:24:58.969Z,14.20
2019-04-21T16:27:29.746Z,14.10
2019-04-21T16:30:01.828Z,14.00
2019-04-21T16:32:34.261Z,13.80
2019-04-21T16:35:10.192Z,13.60
2019-04-21T16:37:37.676Z,13.50
2019-04-21T16:40:09.576Z,13.50
2019-04-21T16:42:40.426Z,13.50
2019-04-21T16:45:12.745Z,13.30
2019-04-21T16:47:47.478Z,13.40
2019-04-21T16:50:19.477Z,13.20
2019-04-21T16:52:54.252Z,13.20
2019-04-21T16:55:48.987Z,13.00
2019-04-21T16:58:28.961Z,12.80
2019-04-21T17:01:11.978Z,12.70
2019-04-21T17:03:37.279Z,12.60
2019-04-21T17:06:08.933Z,12.60
2019-04-21T17:08:40.946Z,12.50
2019-04-21T17:11:18.715Z,12.30
2019-04-21T17:13:43.430Z,12.30
2019-04-21T17:16:43.455Z,12.20
2019-04-21T17:18:57.536Z,11.90
2019-04-21T17:21:17.659Z,11.90
2019-04-21T17:23:48.359Z,11.90
2019-04-21T17:26:19.344Z,11.60
2019-04-21T17:28:50.515Z,11.50
2019-04-21T17:31:22.259Z,11.40
2019-04-21T17:34:02.052Z,11.40
2019-04-21T17:36:25.252Z,11.40
2019-04-21T17:38:57.867Z,11.20
2019-04-21T17:41:37.683Z,11.20
2019-04-21T17:44:00.572Z,11.10
2019-04-21T17:46:42.104Z,11.00
2019-04-21T17:49:03.561Z,10.80
2019-04-21T17:51:55.670Z,10.70
2019-04-21T17:54:35.768Z,10.80
2019-04-21T17:57:24.559Z,10.70
2019-04-21T18:02:29.762Z,10.40
2019-04-21T18:05:07.368Z,10.50
2019-04-21T18:07:31.652Z,10.60
2019-04-21T18:10:04.721Z,10.20
2019-04-21T18:12:33.580Z,10.10
2019-04-21T18:14:59.823Z,10.10
2019-04-21T18:17:22.767Z,10.20
2019-04-21T18:19:56.730Z,10.20
2019-04-21T18:22:52.997Z,10.30
2019-04-21T18:25:37.588Z,10.10
2019-04-21T18:27:57.066Z,10.00
2019-04-21T18:30:46.619Z,9.90
2019-04-21T18:33:27.174Z,9.90
2019-04-21T18:36:08.607Z,9.90
2019-04-21T18:39:12.250Z,9.80
2019-04-21T18:41:26.995Z,9.70
2019-04-21T18:44:28.944Z,9.60
2019-04-21T18:47:14.788Z,9.60
2019-04-21T18:49:33.287Z,9.50
2019-04-21T18:52:20.734Z,9.50
2019-04-21T18:55:00.169Z,9.60
2019-04-21T18:57:24.984Z,10.10
2019-04-21T18:59:51.307Z,9.70
2019-04-21T19:02:23.985Z,9.90
2019-04-21T19:05:00.198Z,10.20
2019-04-21T19:07:46.665Z,9.90
2019-04-21T19:10:22.254Z,9.70
2019-04-21T19:13:20.498Z,10.20
2019-04-21T19:15:15.963Z,10.00
2019-04-21T19:20:31.430Z,9.50
2019-04-21T19:22:52.197Z,9.10
2019-04-21T19:25:31.511Z,9.00
2019-04-21T19:28:03.424Z,8.80
2019-04-21T19:30:44.683Z,8.80
2019-04-21T19:33:10.286Z,8.90
2019-04-21T19:35:23.599Z,8.90
2019-04-21T19:38:03.599Z,8.90
2019-04-21T19:40:40.872Z,8.90
2019-04-21T19:43:07.877Z,9.10
2019-04-21T19:45:42.838Z,9.10
2019-04-21T19:48:18.123Z,9.10
2019-04-21T19:50:58.931Z,9.10
2019-04-21T19:53:25.526Z,9.00
2019-04-21T19:55:40.491Z,9.00
2019-04-21T19:58:12.639Z,8.90
2019-04-21T20:00:44.428Z,9.00
2019-04-21T20:03:16.499Z,9.00
2019-04-21T20:05:57.267Z,8.90
